sensor_id;sensor_type;location;lat;lon;timestamp;pressure;altitude;pressure_sealevel;temperature;humidity
9343;BME280;4710;51.382;7.244;2022-09-16T00:01:20;98877.71;;;24.44;50.02
9343;BME280;4710;51.382;7.244;2022-09-16T00:04:00;98877.66;;;24.38;49.71
9343;BME280;4710;51.382;7.244;2022-09-16T00:06:37;98874.84;;;24.39;50.74
9343;BME280;4710;51.382;7.244;2022-09-16T00:09:14;98876.30;;;23.16;52.14
9343;BME280;4710;51.382;7.244;2022-09-16T00:11:56;98871.45;;;23.92;51.99
9343;BME280;4710;51.382;7.244;2022-09-16T00:14:33;98867.47;;;23.82;52.25
9343;BME280;4710;51.382;7.244;2022-09-16T00:17:13;98873.02;;;24.96;49.00
9343;BME280;4710;51.382;7.244;2022-09-16T00:19:51;98870.90;;;23.56;50.84
9343;BME280;4710;51.382;7.244;2022-09-16T00:22:32;98867.78;;;24.05;52.29
9343;BME280;4710;51.382;7.244;2022-09-16T00:25:12;98867.92;;;24.31;50.74
9343;BME280;4710;51.382;7.244;2022-09-16T00:27:53;98864.03;;;24.63;50.01
9343;BME280;4710;51.382;7.244;2022-09-16T00:30:33;98862.48;;;24.31;52.39
9343;BME280;4710;51.382;7.244;2022-09-16T00:33:10;98861.33;;;24.77;50.58
9343;BME280;4710;51.382;7.244;2022-09-16T00:35:48;98855.14;;;24.17;50.97
9343;BME280;4710;51.382;7.244;2022-09-16T00:38:25;98864.39;;;24.48;50.48
9343;BME280;4710;51.382;7.244;2022-09-16T00:41:02;98861.98;;;24.91;50.10
9343;BME280;4710;51.382;7.244;2022-09-16T00:43:53;98861.20;;;23.94;51.87
9343;BME280;4710;51.382;7.244;2022-09-16T00:46:36;98863.02;;;24.00;52.84
9343;BME280;4710;51.382;7.244;2022-09-16T00:49:20;98863.66;;;24.68;50.90
9343;BME280;4710;51.382;7.244;2022-09-16T00:52:01;98858.23;;;24.29;51.53
9343;BME280;4710;51.382;7.244;2022-09-16T00:54:49;98867.45;;;23.86;51.82
9343;BME280;4710;51.382;7.244;2022-09-16T00:57:27;98867.52;;;24.39;51.26
9343;BME280;4710;51.382;7.244;2022-09-16T01:03:01;98862.78;;;24.86;51.06
9343;BME280;4710;51.382;7.244;2022-09-16T01:05:42;98863.37;;;24.73;50.54
9343;BME280;4710;51.382;7.244;2022-09-16T01:09:35;98863.95;;;24.60;50.38
9343;BME280;4710;51.382;7.244;2022-09-16T01:12:16;98862.95;;;24.19;50.60
9343;BME280;4710;51.382;7.244;2022-09-16T01:14:53;98867.36;;;24.43;50.58
9343;BME280;4710;51.382;7.244;2022-09-16T01:17:36;98863.10;;;25.19;49.37
9343;BME280;4710;51.382;7.244;2022-09-16T01:26:38;98866.70;;;23.72;53.59
9343;BME280;4710;51.382;7.244;2022-09-16T01:29:20;98864.45;;;24.51;51.47
9343;BME280;4710;51.382;7.244;2022-09-16T01:38:09;98865.91;;;23.93;52.30
9343;BME280;4710;51.382;7.244;2022-09-16T01:40:52;98873.64;;;24.05;52.01
9343;BME280;4710;51.382;7.244;2022-09-16T01:43:39;98871.41;;;24.38;51.91
9343;BME280;4710;51.382;7.244;2022-09-16T01:46:19;98866.13;;;24.43;52.37
9343;BME280;4710;51.382;7.244;2022-09-16T01:48:59;98868.14;;;24.11;52.88
9343;BME280;4710;51.382;7.244;2022-09-16T01:51:47;98864.47;;;24.03;53.97
9343;BME280;4710;51.382;7.244;2022-09-16T01:54:31;98864.44;;;24.06;52.59
9343;BME280;4710;51.382;7.244;2022-09-16T01:57:25;98858.23;;;25.07;50.50
9343;BME280;4710;51.382;7.244;2022-09-16T02:00:08;98854.91;;;24.09;53.74
9343;BME280;4710;51.382;7.244;2022-09-16T02:02:55;98859.84;;;24.72;52.33
9343;BME280;4710;51.382;7.244;2022-09-16T02:05:40;98858.09;;;24.24;52.29
9343;BME280;4710;51.382;7.244;2022-09-16T02:08:39;98860.37;;;24.33;52.25
9343;BME280;4710;51.382;7.244;2022-09-16T02:11:17;98860.45;;;23.96;53.61
9343;BME280;4710;51.382;7.244;2022-09-16T02:14:01;98854.30;;;24.64;51.70
9343;BME280;4710;51.382;7.244;2022-09-16T02:16:49;98853.45;;;25.26;51.18
9343;BME280;4710;51.382;7.244;2022-09-16T02:19:39;98855.01;;;24.89;50.94
9343;BME280;4710;51.382;7.244;2022-09-16T02:22:23;98852.20;;;24.45;51.12
9343;BME280;4710;51.382;7.244;2022-09-16T02:25:02;98847.70;;;24.27;52.26
9343;BME280;4710;51.382;7.244;2022-09-16T02:27:42;98855.11;;;24.38;51.20
9343;BME280;4710;51.382;7.244;2022-09-16T02:30:26;98859.89;;;24.30;51.20
9343;BME280;4710;51.382;7.244;2022-09-16T02:33:09;98855.05;;;24.95;51.09
9343;BME280;4710;51.382;7.244;2022-09-16T02:35:51;98847.49;;;24.28;51.95
9343;BME280;4710;51.382;7.244;2022-09-16T02:38:35;98847.78;;;23.99;53.12
9343;BME280;4710;51.382;7.244;2022-09-16T02:41:15;98846.22;;;24.01;53.18
9343;BME280;4710;51.382;7.244;2022-09-16T02:43:53;98853.98;;;24.45;52.02
9343;BME280;4710;51.382;7.244;2022-09-16T02:46:44;98853.57;;;24.54;51.96
9343;BME280;4710;51.382;7.244;2022-09-16T02:55:13;98853.64;;;23.99;53.58
9343;BME280;4710;51.382;7.244;2022-09-16T02:57:56;98849.44;;;24.12;53.73
9343;BME280;4710;51.382;7.244;2022-09-16T03:00:40;98847.25;;;25.22;49.80
9343;BME280;4710;51.382;7.244;2022-09-16T03:03:20;98849.47;;;23.97;53.54
9343;BME280;4710;51.382;7.244;2022-09-16T03:06:19;98854.30;;;24.16;51.85
9343;BME280;4710;51.382;7.244;2022-09-16T03:08:58;98843.73;;;24.56;51.48
9343;BME280;4710;51.382;7.244;2022-09-16T03:11:47;98838.41;;;23.98;51.96
9343;BME280;4710;51.382;7.244;2022-09-16T03:14:34;98834.15;;;25.31;49.16
9343;BME280;4710;51.382;7.244;2022-09-16T03:17:24;98838.94;;;24.34;51.24
9343;BME280;4710;51.382;7.244;2022-09-16T03:20:11;98839.84;;;24.10;51.31
9343;BME280;4710;51.382;7.244;2022-09-16T03:28:57;98826.78;;;23.67;54.03
9343;BME280;4710;51.382;7.244;2022-09-16T03:31:44;98822.98;;;23.59;53.60
9343;BME280;4710;51.382;7.244;2022-09-16T03:34:24;98829.14;;;23.85;53.19
9343;BME280;4710;51.382;7.244;2022-09-16T03:37:05;98828.34;;;23.41;53.16
9343;BME280;4710;51.382;7.244;2022-09-16T03:39:48;98828.11;;;23.31;53.48
9343;BME280;4710;51.382;7.244;2022-09-16T03:42:27;98822.88;;;23.35;53.95
9343;BME280;4710;51.382;7.244;2022-09-16T03:45:05;98827.07;;;23.56;53.43
9343;BME280;4710;51.382;7.244;2022-09-16T03:47:46;98821.75;;;23.67;53.91
9343;BME280;4710;51.382;7.244;2022-09-16T03:50:27;98826.06;;;23.29;53.39
9343;BME280;4710;51.382;7.244;2022-09-16T03:53:08;98825.41;;;23.55;54.00
9343;BME280;4710;51.382;7.244;2022-09-16T03:55:47;98824.16;;;23.78;53.63
9343;BME280;4710;51.382;7.244;2022-09-16T03:58:29;98819.39;;;23.06;56.03
9343;BME280;4710;51.382;7.244;2022-09-16T04:01:09;98814.45;;;24.01;55.33
9343;BME280;4710;51.382;7.244;2022-09-16T04:03:49;98819.86;;;23.34;54.12
9343;BME280;4710;51.382;7.244;2022-09-16T04:06:33;98818.67;;;24.27;52.58
9343;BME280;4710;51.382;7.244;2022-09-16T04:09:10;98820.99;;;24.06;53.56
9343;BME280;4710;51.382;7.244;2022-09-16T04:11:54;98811.16;;;24.26;51.75
9343;BME280;4710;51.382;7.244;2022-09-16T04:14:34;98815.25;;;22.85;53.45
9343;BME280;4710;51.382;7.244;2022-09-16T04:17:15;98810.17;;;23.78;52.01
9343;BME280;4710;51.382;7.244;2022-09-16T04:19:55;98809.48;;;23.89;51.10
9343;BME280;4710;51.382;7.244;2022-09-16T04:22:33;98808.16;;;23.70;52.20
9343;BME280;4710;51.382;7.244;2022-09-16T04:25:13;98810.41;;;23.40;52.53
9343;BME280;4710;51.382;7.244;2022-09-16T04:27:52;98811.13;;;23.53;52.10
9343;BME280;4710;51.382;7.244;2022-09-16T04:30:33;98807.28;;;24.19;51.99
9343;BME280;4710;51.382;7.244;2022-09-16T04:33:11;98809.88;;;24.20;50.73
9343;BME280;4710;51.382;7.244;2022-09-16T04:35:48;98806.65;;;23.13;53.06
9343;BME280;4710;51.382;7.244;2022-09-16T04:38:29;98807.70;;;24.34;51.28
9343;BME280;4710;51.382;7.244;2022-09-16T04:41:09;98806.61;;;23.69;52.66
9343;BME280;4710;51.382;7.244;2022-09-16T04:43:51;98806.89;;;23.24;53.91
9343;BME280;4710;51.382;7.244;2022-09-16T04:46:30;98809.45;;;23.16;54.94
9343;BME280;4710;51.382;7.244;2022-09-16T04:49:11;98806.65;;;22.95;55.89
9343;BME280;4710;51.382;7.244;2022-09-16T04:51:49;98809.26;;;23.54;52.94
9343;BME280;4710;51.382;7.244;2022-09-16T04:54:30;98810.34;;;23.59;53.58
9343;BME280;4710;51.382;7.244;2022-09-16T04:57:07;98817.83;;;23.63;53.06
9343;BME280;4710;51.382;7.244;2022-09-16T04:59:44;98812.91;;;23.66;53.46
9343;BME280;4710;51.382;7.244;2022-09-16T05:04:34;98807.45;;;23.20;53.74
9343;BME280;4710;51.382;7.244;2022-09-16T05:07:12;98819.16;;;23.91;53.51
9343;BME280;4710;51.382;7.244;2022-09-16T05:09:50;98820.94;;;23.30;53.35
9343;BME280;4710;51.382;7.244;2022-09-16T05:12:28;98820.34;;;23.74;53.45
9343;BME280;4710;51.382;7.244;2022-09-16T05:15:07;98817.86;;;23.84;52.65
9343;BME280;4710;51.382;7.244;2022-09-16T05:17:52;98819.37;;;23.28;52.59
9343;BME280;4710;51.382;7.244;2022-09-16T05:20:33;98814.14;;;24.30;51.61
9343;BME280;4710;51.382;7.244;2022-09-16T05:23:13;98816.36;;;23.76;53.42
9343;BME280;4710;51.382;7.244;2022-09-16T05:25:51;98818.29;;;22.45;55.43
9343;BME280;4710;51.382;7.244;2022-09-16T05:28:31;98810.78;;;23.96;52.15
9343;BME280;4710;51.382;7.244;2022-09-16T05:31:10;98812.31;;;23.85;52.52
9343;BME280;4710;51.382;7.244;2022-09-16T05:33:54;98819.51;;;23.12;54.15
9343;BME280;4710;51.382;7.244;2022-09-16T05:36:37;98806.75;;;23.16;55.54
9343;BME280;4710;51.382;7.244;2022-09-16T05:39:18;98815.86;;;23.37;53.78
9343;BME280;4710;51.382;7.244;2022-09-16T05:41:59;98817.17;;;23.43;53.43
9343;BME280;4710;51.382;7.244;2022-09-16T05:44:36;98811.22;;;23.56;53.47
9343;BME280;4710;51.382;7.244;2022-09-16T05:47:18;98809.41;;;23.50;54.16
9343;BME280;4710;51.382;7.244;2022-09-16T05:49:55;98812.39;;;24.09;51.94
9343;BME280;4710;51.382;7.244;2022-09-16T05:52:32;98816.73;;;24.82;49.80
9343;BME280;4710;51.382;7.244;2022-09-16T05:55:10;98814.44;;;24.13;50.41
9343;BME280;4710;51.382;7.244;2022-09-16T05:57:50;98817.86;;;24.54;50.36
9343;BME280;4710;51.382;7.244;2022-09-16T06:00:27;98819.52;;;24.42;50.16
9343;BME280;4710;51.382;7.244;2022-09-16T06:03:04;98822.33;;;22.71;53.98
9343;BME280;4710;51.382;7.244;2022-09-16T06:05:42;98818.14;;;23.09;52.89
9343;BME280;4710;51.382;7.244;2022-09-16T06:08:19;98820.14;;;23.38;51.99
9343;BME280;4710;51.382;7.244;2022-09-16T06:10:59;98814.70;;;24.00;51.90
9343;BME280;4710;51.382;7.244;2022-09-16T06:13:37;98815.53;;;23.05;52.61
9343;BME280;4710;51.382;7.244;2022-09-16T06:16:21;98819.06;;;24.10;52.16
9343;BME280;4710;51.382;7.244;2022-09-16T06:18:59;98819.03;;;24.04;51.55
9343;BME280;4710;51.382;7.244;2022-09-16T06:21:39;98818.19;;;23.70;52.87
9343;BME280;4710;51.382;7.244;2022-09-16T06:24:19;98822.88;;;23.47;53.12
9343;BME280;4710;51.382;7.244;2022-09-16T06:27:00;98834.29;;;22.50;53.94
9343;BME280;4710;51.382;7.244;2022-09-16T06:29:38;98829.09;;;22.89;54.66
9343;BME280;4710;51.382;7.244;2022-09-16T06:32:15;98823.94;;;22.97;54.77
9343;BME280;4710;51.382;7.244;2022-09-16T06:34:53;98819.45;;;23.58;53.54
9343;BME280;4710;51.382;7.244;2022-09-16T06:37:33;98827.51;;;22.53;56.51
9343;BME280;4710;51.382;7.244;2022-09-16T06:40:10;98825.37;;;22.84;56.36
9343;BME280;4710;51.382;7.244;2022-09-16T06:42:47;98815.21;;;23.90;53.65
9343;BME280;4710;51.382;7.244;2022-09-16T06:45:28;98817.38;;;22.95;55.11
9343;BME280;4710;51.382;7.244;2022-09-16T06:48:08;98823.55;;;23.28;55.01
9343;BME280;4710;51.382;7.244;2022-09-16T06:50:45;98819.49;;;23.89;55.02
9343;BME280;4710;51.382;7.244;2022-09-16T06:53:26;98821.92;;;23.60;54.25
9343;BME280;4710;51.382;7.244;2022-09-16T06:56:04;98817.84;;;23.23;55.60
9343;BME280;4710;51.382;7.244;2022-09-16T06:58:44;98817.92;;;23.07;57.50
9343;BME280;4710;51.382;7.244;2022-09-16T07:01:25;98822.89;;;22.57;59.04
9343;BME280;4710;51.382;7.244;2022-09-16T07:04:08;98827.84;;;22.92;59.47
9343;BME280;4710;51.382;7.244;2022-09-16T07:06:50;98833.55;;;22.96;57.74
9343;BME280;4710;51.382;7.244;2022-09-16T07:09:35;98831.56;;;23.84;55.36
9343;BME280;4710;51.382;7.244;2022-09-16T07:12:14;98833.88;;;23.77;55.13
9343;BME280;4710;51.382;7.244;2022-09-16T07:14:51;98836.26;;;22.96;58.80
9343;BME280;4710;51.382;7.244;2022-09-16T07:17:28;98839.29;;;22.94;56.95
9343;BME280;4710;51.382;7.244;2022-09-16T07:20:12;98841.48;;;23.56;56.04
9343;BME280;4710;51.382;7.244;2022-09-16T07:22:49;98843.69;;;23.93;55.16
9343;BME280;4710;51.382;7.244;2022-09-16T07:25:33;98841.59;;;23.77;55.27
9343;BME280;4710;51.382;7.244;2022-09-16T07:28:14;98842.64;;;23.67;55.91
9343;BME280;4710;51.382;7.244;2022-09-16T07:30:51;98846.48;;;23.56;58.16
9343;BME280;4710;51.382;7.244;2022-09-16T07:33:30;98852.36;;;24.23;53.93
9343;BME280;4710;51.382;7.244;2022-09-16T07:36:11;98857.81;;;24.97;51.91
9343;BME280;4710;51.382;7.244;2022-09-16T07:38:51;98861.73;;;23.78;54.96
9343;BME280;4710;51.382;7.244;2022-09-16T07:41:32;98861.45;;;23.37;57.23
9343;BME280;4710;51.382;7.244;2022-09-16T07:44:13;98860.63;;;22.55;59.52
9343;BME280;4710;51.382;7.244;2022-09-16T07:46:56;98854.50;;;23.81;56.59
9343;BME280;4710;51.382;7.244;2022-09-16T07:49:33;98860.80;;;24.51;54.45
9343;BME280;4710;51.382;7.244;2022-09-16T07:52:11;98860.10;;;24.28;54.85
9343;BME280;4710;51.382;7.244;2022-09-16T07:54:54;98856.30;;;23.54;55.96
9343;BME280;4710;51.382;7.244;2022-09-16T07:57:35;98856.80;;;23.96;55.46
9343;BME280;4710;51.382;7.244;2022-09-16T08:00:15;98867.63;;;23.35;56.02
9343;BME280;4710;51.382;7.244;2022-09-16T08:02:55;98864.28;;;24.10;54.74
9343;BME280;4710;51.382;7.244;2022-09-16T08:05:33;98862.41;;;23.89;54.43
9343;BME280;4710;51.382;7.244;2022-09-16T08:08:10;98864.21;;;23.31;56.18
9343;BME280;4710;51.382;7.244;2022-09-16T08:10:53;98872.83;;;22.49;59.02
9343;BME280;4710;51.382;7.244;2022-09-16T08:13:33;98852.45;;;24.13;55.79
9343;BME280;4710;51.382;7.244;2022-09-16T08:16:17;98866.41;;;22.69;57.88
9343;BME280;4710;51.382;7.244;2022-09-16T08:18:58;98869.58;;;24.86;53.90
9343;BME280;4710;51.382;7.244;2022-09-16T08:21:38;98865.56;;;25.30;51.53
9343;BME280;4710;51.382;7.244;2022-09-16T08:24:15;98867.76;;;24.56;51.88
9343;BME280;4710;51.382;7.244;2022-09-16T08:26:56;98865.52;;;23.49;53.48
9343;BME280;4710;51.382;7.244;2022-09-16T08:29:36;98868.80;;;23.58;54.64
9343;BME280;4710;51.382;7.244;2022-09-16T08:32:13;98869.91;;;24.29;54.22
9343;BME280;4710;51.382;7.244;2022-09-16T08:34:52;98867.87;;;24.46;51.42
9343;BME280;4710;51.382;7.244;2022-09-16T08:37:33;98867.20;;;24.21;52.16
9343;BME280;4710;51.382;7.244;2022-09-16T08:40:14;98873.33;;;24.25;53.37
9343;BME280;4710;51.382;7.244;2022-09-16T08:43:08;98873.48;;;25.08;51.41
9343;BME280;4710;51.382;7.244;2022-09-16T08:45:51;98877.22;;;24.11;51.68
9343;BME280;4710;51.382;7.244;2022-09-16T08:48:35;98873.53;;;25.10;50.21
9343;BME280;4710;51.382;7.244;2022-09-16T08:51:14;98880.64;;;24.73;50.65
9343;BME280;4710;51.382;7.244;2022-09-16T08:54:00;98880.61;;;25.23;48.25
9343;BME280;4710;51.382;7.244;2022-09-16T08:56:38;98874.47;;;25.04;50.17
9343;BME280;4710;51.382;7.244;2022-09-16T08:59:20;98867.70;;;24.86;50.15
9343;BME280;4710;51.382;7.244;2022-09-16T09:02:21;98863.73;;;25.97;48.28
9343;BME280;4710;51.382;7.244;2022-09-16T09:04:43;98867.11;;;24.75;50.66
9343;BME280;4710;51.382;7.244;2022-09-16T09:13:36;98869.42;;;25.95;46.23
9343;BME280;4710;51.382;7.244;2022-09-16T09:16:22;98877.05;;;24.09;47.54
9343;BME280;4710;51.382;7.244;2022-09-16T09:19:07;98876.78;;;25.33;47.53
9343;BME280;4710;51.382;7.244;2022-09-16T09:22:05;98876.53;;;24.19;47.65
9343;BME280;4710;51.382;7.244;2022-09-16T09:24:57;98885.83;;;23.03;51.04
9343;BME280;4710;51.382;7.244;2022-09-16T09:27:38;98877.73;;;24.62;47.20
9343;BME280;4710;51.382;7.244;2022-09-16T09:30:21;98881.08;;;25.20;45.39
9343;BME280;4710;51.382;7.244;2022-09-16T09:36:07;98867.36;;;25.47;45.30
9343;BME280;4710;51.382;7.244;2022-09-16T09:38:54;98872.46;;;24.82;44.76
9343;BME280;4710;51.382;7.244;2022-09-16T09:41:35;98870.57;;;25.35;43.77
9343;BME280;4710;51.382;7.244;2022-09-16T09:44:35;98871.57;;;25.02;44.80
9343;BME280;4710;51.382;7.244;2022-09-16T09:47:18;98859.90;;;25.75;44.57
9343;BME280;4710;51.382;7.244;2022-09-16T09:49:56;98873.72;;;23.86;46.49
9343;BME280;4710;51.382;7.244;2022-09-16T09:52:43;98863.57;;;23.72;48.47
9343;BME280;4710;51.382;7.244;2022-09-16T09:55:21;98884.52;;;22.71;49.36
9343;BME280;4710;51.382;7.244;2022-09-16T10:01:00;98867.73;;;22.97;49.31
9343;BME280;4710;51.382;7.244;2022-09-16T10:03:37;98862.23;;;24.18;46.88
9343;BME280;4710;51.382;7.244;2022-09-16T10:06:19;98862.98;;;25.67;43.89
9343;BME280;4710;51.382;7.244;2022-09-16T10:09:01;98868.80;;;24.28;44.62
9343;BME280;4710;51.382;7.244;2022-09-16T10:11:46;98857.37;;;25.15;44.04
9343;BME280;4710;51.382;7.244;2022-09-16T10:14:29;98862.36;;;25.85;42.45
9343;BME280;4710;51.382;7.244;2022-09-16T10:17:14;98853.62;;;25.63;43.14
9343;BME280;4710;51.382;7.244;2022-09-16T10:19:56;98852.92;;;26.05;41.71
9343;BME280;4710;51.382;7.244;2022-09-16T10:22:35;98859.02;;;25.25;42.67
9343;BME280;4710;51.382;7.244;2022-09-16T10:25:21;98864.27;;;24.52;43.17
9343;BME280;4710;51.382;7.244;2022-09-16T10:28:03;98855.97;;;25.65;41.67
9343;BME280;4710;51.382;7.244;2022-09-16T10:30:42;98856.11;;;24.85;41.89
9343;BME280;4710;51.382;7.244;2022-09-16T10:33:23;98856.58;;;24.97;41.37
9343;BME280;4710;51.382;7.244;2022-09-16T10:36:06;98850.20;;;25.17;41.02
9343;BME280;4710;51.382;7.244;2022-09-16T10:38:55;98842.97;;;25.61;41.36
9343;BME280;4710;51.382;7.244;2022-09-16T10:41:40;98850.98;;;24.31;42.19
9343;BME280;4710;51.382;7.244;2022-09-16T10:44:25;98849.03;;;24.47;43.36
9343;BME280;4710;51.382;7.244;2022-09-16T10:47:04;98847.54;;;24.52;42.03
9343;BME280;4710;51.382;7.244;2022-09-16T10:49:45;98842.28;;;25.19;40.81
9343;BME280;4710;51.382;7.244;2022-09-16T10:52:27;98839.75;;;24.37;41.64
9343;BME280;4710;51.382;7.244;2022-09-16T10:55:25;98843.77;;;24.05;40.56
9343;BME280;4710;51.382;7.244;2022-09-16T10:58:11;98835.80;;;24.07;41.09
9343;BME280;4710;51.382;7.244;2022-09-16T11:01:20;98841.98;;;25.24;39.53
9343;BME280;4710;51.382;7.244;2022-09-16T11:04:14;98840.78;;;24.81;40.15
9343;BME280;4710;51.382;7.244;2022-09-16T11:09:53;98843.75;;;25.00;39.39
9343;BME280;4710;51.382;7.244;2022-09-16T11:12:38;98845.23;;;24.85;40.18
9343;BME280;4710;51.382;7.244;2022-09-16T11:21:06;98834.98;;;26.74;38.27
9343;BME280;4710;51.382;7.244;2022-09-16T11:27:03;98841.83;;;25.54;38.18
9343;BME280;4710;51.382;7.244;2022-09-16T11:29:53;98841.92;;;24.83;38.98
9343;BME280;4710;51.382;7.244;2022-09-16T11:32:54;98835.34;;;25.66;37.96
9343;BME280;4710;51.382;7.244;2022-09-16T11:35:39;98828.05;;;26.55;37.81
9343;BME280;4710;51.382;7.244;2022-09-16T11:41:47;98830.57;;;26.99;37.47
9343;BME280;4710;51.382;7.244;2022-09-16T11:44:35;98835.44;;;26.83;36.66
9343;BME280;4710;51.382;7.244;2022-09-16T11:47:24;98834.14;;;27.13;36.54
9343;BME280;4710;51.382;7.244;2022-09-16T11:50:08;98833.27;;;26.34;37.33
9343;BME280;4710;51.382;7.244;2022-09-16T11:55:51;98834.58;;;26.88;37.07
9343;BME280;4710;51.382;7.244;2022-09-16T11:58:37;98825.52;;;27.49;36.06
9343;BME280;4710;51.382;7.244;2022-09-16T12:04:11;98835.45;;;24.66;39.01
9343;BME280;4710;51.382;7.244;2022-09-16T12:07:03;98836.86;;;24.85;38.50
9343;BME280;4710;51.382;7.244;2022-09-16T12:09:49;98839.25;;;25.76;39.03
9343;BME280;4710;51.382;7.244;2022-09-16T12:12:31;98838.98;;;25.05;38.61
9343;BME280;4710;51.382;7.244;2022-09-16T12:15:15;98859.34;;;24.52;38.69
9343;BME280;4710;51.382;7.244;2022-09-16T12:17:57;98867.95;;;24.67;39.04
9343;BME280;4710;51.382;7.244;2022-09-16T12:20:44;98856.19;;;23.42;39.49
9343;BME280;4710;51.382;7.244;2022-09-16T12:23:23;98859.05;;;23.50;40.45
9343;BME280;4710;51.382;7.244;2022-09-16T12:26:19;98865.46;;;25.36;38.12
9343;BME280;4710;51.382;7.244;2022-09-16T12:29:02;98873.19;;;24.92;40.09
9343;BME280;4710;51.382;7.244;2022-09-16T12:32:01;98876.06;;;25.26;39.18
9343;BME280;4710;51.382;7.244;2022-09-16T12:34:53;98877.78;;;25.15;40.38
9343;BME280;4710;51.382;7.244;2022-09-16T12:37:46;98873.56;;;26.03;38.71
9343;BME280;4710;51.382;7.244;2022-09-16T12:40:27;98868.18;;;24.56;40.00
9343;BME280;4710;51.382;7.244;2022-09-16T12:43:20;98864.61;;;26.96;37.37
9343;BME280;4710;51.382;7.244;2022-09-16T12:46:09;98860.20;;;25.29;39.92
9343;BME280;4710;51.382;7.244;2022-09-16T12:52:14;98855.52;;;25.12;40.09
9343;BME280;4710;51.382;7.244;2022-09-16T12:57:51;98859.67;;;24.85;41.34
9343;BME280;4710;51.382;7.244;2022-09-16T13:00:31;98859.42;;;25.11;40.54
9343;BME280;4710;51.382;7.244;2022-09-16T13:03:13;98843.98;;;26.81;39.09
9343;BME280;4710;51.382;7.244;2022-09-16T13:05:56;98843.70;;;27.22;38.40
9343;BME280;4710;51.382;7.244;2022-09-16T13:08:37;98858.58;;;25.60;39.69
9343;BME280;4710;51.382;7.244;2022-09-16T13:11:30;98861.61;;;26.70;39.32
9343;BME280;4710;51.382;7.244;2022-09-16T13:14:18;98871.48;;;27.77;37.40
9343;BME280;4710;51.382;7.244;2022-09-16T13:16:55;98875.67;;;28.26;35.51
9343;BME280;4710;51.382;7.244;2022-09-16T13:19:40;98883.11;;;27.56;35.60
9343;BME280;4710;51.382;7.244;2022-09-16T13:25:25;98882.29;;;25.82;36.93
9343;BME280;4710;51.382;7.244;2022-09-16T13:28:21;98888.24;;;26.25;37.46
9343;BME280;4710;51.382;7.244;2022-09-16T13:30:44;98883.57;;;27.45;36.54
9343;BME280;4710;51.382;7.244;2022-09-16T13:33:25;98891.34;;;25.94;38.23
9343;BME280;4710;51.382;7.244;2022-09-16T13:36:14;98895.88;;;26.86;37.46
9343;BME280;4710;51.382;7.244;2022-09-16T13:38:54;98907.94;;;24.63;39.70
9343;BME280;4710;51.382;7.244;2022-09-16T13:41:36;98902.74;;;25.68;39.27
9343;BME280;4710;51.382;7.244;2022-09-16T13:44:40;98926.77;;;25.12;39.14
9343;BME280;4710;51.382;7.244;2022-09-16T13:47:29;98935.48;;;23.72;45.05
9343;BME280;4710;51.382;7.244;2022-09-16T13:50:20;98916.52;;;25.43;44.63
9343;BME280;4710;51.382;7.244;2022-09-16T13:53:09;98904.36;;;26.10;43.68
9343;BME280;4710;51.382;7.244;2022-09-16T13:55:52;98930.20;;;25.46;45.83
9343;BME280;4710;51.382;7.244;2022-09-16T13:58:35;98932.06;;;26.56;43.61
9343;BME280;4710;51.382;7.244;2022-09-16T14:01:17;98929.97;;;25.15;45.66
9343;BME280;4710;51.382;7.244;2022-09-16T14:06:59;98914.59;;;24.42;47.65
9343;BME280;4710;51.382;7.244;2022-09-16T14:09:45;98898.52;;;24.44;46.59
9343;BME280;4710;51.382;7.244;2022-09-16T14:12:31;98903.98;;;24.62;48.15
9343;BME280;4710;51.382;7.244;2022-09-16T14:15:08;98904.85;;;25.07;46.08
9343;BME280;4710;51.382;7.244;2022-09-16T14:17:50;98907.84;;;24.39;47.71
9343;BME280;4710;51.382;7.244;2022-09-16T14:20:29;98903.10;;;24.98;46.92
9343;BME280;4710;51.382;7.244;2022-09-16T14:23:16;98899.06;;;23.58;49.82
9343;BME280;4710;51.382;7.244;2022-09-16T14:25:56;98889.27;;;24.18;50.15
9343;BME280;4710;51.382;7.244;2022-09-16T14:28:37;98892.38;;;23.30;51.43
9343;BME280;4710;51.382;7.244;2022-09-16T14:31:18;98886.80;;;23.49;53.58
9343;BME280;4710;51.382;7.244;2022-09-16T14:44:41;98866.02;;;24.22;53.31
9343;BME280;4710;51.382;7.244;2022-09-16T14:57:50;98867.42;;;24.58;56.49
9343;BME280;4710;51.382;7.244;2022-09-16T15:00:42;98864.55;;;25.19;56.35
9343;BME280;4710;51.382;7.244;2022-09-16T15:03:25;98861.04;;;24.49;57.84
9343;BME280;4710;51.382;7.244;2022-09-16T15:06:08;98860.05;;;24.26;58.55
9343;BME280;4710;51.382;7.244;2022-09-16T15:09:02;98860.84;;;23.87;61.60
9343;BME280;4710;51.382;7.244;2022-09-16T15:11:48;98860.37;;;24.51;58.45
9343;BME280;4710;51.382;7.244;2022-09-16T15:14:26;98862.78;;;24.86;58.83
9343;BME280;4710;51.382;7.244;2022-09-16T15:20:19;98841.98;;;24.17;58.78
9343;BME280;4710;51.382;7.244;2022-09-16T15:33:33;98854.10;;;24.23;56.73
9343;BME280;4710;51.382;7.244;2022-09-16T15:36:30;98855.66;;;24.64;53.48
9343;BME280;4710;51.382;7.244;2022-09-16T15:38:56;98852.86;;;23.68;53.98
9343;BME280;4710;51.382;7.244;2022-09-16T15:41:33;98842.47;;;24.07;52.10
9343;BME280;4710;51.382;7.244;2022-09-16T15:44:12;98850.12;;;25.03;49.74
9343;BME280;4710;51.382;7.244;2022-09-16T15:46:51;98839.61;;;25.36;48.98
9343;BME280;4710;51.382;7.244;2022-09-16T15:49:31;98839.61;;;25.42;48.56
9343;BME280;4710;51.382;7.244;2022-09-16T15:52:10;98828.34;;;26.56;46.82
9343;BME280;4710;51.382;7.244;2022-09-16T15:54:49;98826.23;;;26.67;46.83
9343;BME280;4710;51.382;7.244;2022-09-16T15:57:34;98834.91;;;25.55;48.95
9343;BME280;4710;51.382;7.244;2022-09-16T16:00:16;98832.53;;;26.13;47.06
9343;BME280;4710;51.382;7.244;2022-09-16T16:02:55;98838.19;;;24.81;47.52
9343;BME280;4710;51.382;7.244;2022-09-16T16:05:37;98834.98;;;24.51;47.77
9343;BME280;4710;51.382;7.244;2022-09-16T16:08:42;98826.74;;;25.87;46.68
9343;BME280;4710;51.382;7.244;2022-09-16T16:11:20;98821.34;;;25.51;46.47
9343;BME280;4710;51.382;7.244;2022-09-16T16:14:01;98833.55;;;23.27;49.93
9343;BME280;4710;51.382;7.244;2022-09-16T16:16:39;98838.62;;;25.45;47.05
9343;BME280;4710;51.382;7.244;2022-09-16T16:19:16;98865.24;;;26.67;45.76
9343;BME280;4710;51.382;7.244;2022-09-16T16:21:54;98872.85;;;27.19;44.29
9343;BME280;4710;51.382;7.244;2022-09-16T16:24:36;98869.02;;;26.01;41.39
9343;BME280;4710;51.382;7.244;2022-09-16T16:27:16;98867.17;;;26.95;40.82
9343;BME280;4710;51.382;7.244;2022-09-16T16:29:54;98869.59;;;26.54;39.42
9343;BME280;4710;51.382;7.244;2022-09-16T16:32:31;98877.03;;;26.36;39.84
9343;BME280;4710;51.382;7.244;2022-09-16T16:35:15;98870.98;;;26.45;39.29